createdAt,value
2018-11-13T00:00:21.146Z,100355.30
2018-11-13T00:02:57.123Z,100351.45
2018-11-13T00:05:29.995Z,100351.58
2018-11-13T00:08:14.692Z,100347.20
2018-11-13T00:10:48.806Z,100341.55
2018-11-13T00:13:23.419Z,100347.07
2018-11-13T00:15:56.611Z,100353.78
2018-11-13T00:18:30.616Z,100356.16
2018-11-13T00:21:12.021Z,100355.17
2018-11-13T00:23:46.789Z,100352.66
2018-11-13T00:26:21.226Z,100356.58
2018-11-13T00:28:56.731Z,100349.08
2018-11-13T00:31:30.335Z,100339.80
2018-11-13T00:34:04.736Z,100339.13
2018-11-13T00:36:37.639Z,100330.06
2018-11-13T00:39:17.474Z,100332.16
2018-11-13T00:41:53.300Z,100317.33
2018-11-13T00:44:26.877Z,100317.09
2018-11-13T00:47:00.480Z,100308.56
2018-11-13T00:49:34.999Z,100305.50
2018-11-13T00:52:10.968Z,100302.98
2018-11-13T00:54:44.977Z,100291.22
2018-11-13T00:57:18.708Z,100290.88
2018-11-13T00:59:57.191Z,100287.66
2018-11-13T01:02:29.884Z,100283.66
2018-11-13T01:05:09.701Z,100283.88
2018-11-13T01:07:44.191Z,100288.12
2018-11-13T01:10:18.842Z,100300.58
2018-11-13T01:12:53.396Z,100312.27
2018-11-13T01:15:26.113Z,100320.94
2018-11-13T01:17:59.385Z,100320.11
2018-11-13T01:20:32.830Z,100323.05
2018-11-13T01:23:05.484Z,100324.26
2018-11-13T01:25:38.214Z,100334.81
2018-11-13T01:28:13.625Z,100343.75
2018-11-13T01:30:46.863Z,100346.03
2018-11-13T01:33:20.151Z,100361.42
2018-11-13T01:35:54.670Z,100371.19
2018-11-13T01:38:28.227Z,100377.94
2018-11-13T01:41:02.471Z,100374.19
2018-11-13T01:43:36.314Z,100373.89
2018-11-13T01:46:10.122Z,100371.45
2018-11-13T01:48:43.518Z,100360.61
2018-11-13T01:51:19.831Z,100352.25
2018-11-13T01:53:53.221Z,100346.67
2018-11-13T01:56:25.858Z,100352.64
2018-11-13T01:59:00.901Z,100373.13
2018-11-13T02:01:35.186Z,100378.70
2018-11-13T02:04:13.287Z,100377.28
2018-11-13T02:06:46.083Z,100374.36
2018-11-13T02:09:18.673Z,100377.07
2018-11-13T02:11:52.379Z,100381.61
2018-11-13T02:14:25.008Z,100370.32
2018-11-13T02:17:00.561Z,100365.16
2018-11-13T02:19:34.930Z,100348.22
2018-11-13T02:22:08.422Z,100340.97
2018-11-13T02:24:41.684Z,100353.80
2018-11-13T02:27:14.277Z,100369.21
2018-11-13T02:29:49.086Z,100380.48
2018-11-13T02:32:24.724Z,100367.91
2018-11-13T02:34:57.283Z,100362.48
2018-11-13T02:37:31.214Z,100350.06
2018-11-13T02:40:04.258Z,100361.97
2018-11-13T02:42:38.823Z,100358.84
2018-11-13T02:45:16.482Z,100348.03
2018-11-13T02:47:51.212Z,100350.09
2018-11-13T02:50:25.348Z,100341.18
2018-11-13T02:52:58.015Z,100340.30
2018-11-13T02:55:31.088Z,100345.97
2018-11-13T02:58:05.576Z,100351.68
2018-11-13T03:00:54.247Z,100353.61
2018-11-13T03:03:28.302Z,100359.55
2018-11-13T03:06:01.220Z,100357.01
2018-11-13T03:08:35.479Z,100363.48
2018-11-13T03:11:09.337Z,100374.17
2018-11-13T03:13:42.499Z,100375.34
2018-11-13T03:16:15.515Z,100377.92
2018-11-13T03:18:49.966Z,100379.81
2018-11-13T03:21:24.841Z,100378.26
2018-11-13T03:23:57.459Z,100383.45
2018-11-13T03:26:31.528Z,100381.23
2018-11-13T03:29:07.888Z,100379.90
2018-11-13T03:31:42.675Z,100378.64
2018-11-13T03:34:20.825Z,100390.31
2018-11-13T03:36:54.065Z,100394.92
2018-11-13T03:39:26.963Z,100392.46
2018-11-13T03:42:01.694Z,100399.84
2018-11-13T03:44:36.891Z,100406.79
2018-11-13T03:47:13.265Z,100405.58
2018-11-13T03:49:46.537Z,100402.42
2018-11-13T03:52:19.777Z,100393.88
2018-11-13T03:54:53.228Z,100392.05
2018-11-13T03:57:27.551Z,100393.26
2018-11-13T04:00:06.052Z,100398.45
2018-11-13T04:02:40.636Z,100401.88
2018-11-13T04:05:15.423Z,100399.93
2018-11-13T04:07:49.950Z,100397.36
2018-11-13T04:10:24.055Z,100402.84
2018-11-13T04:12:56.927Z,100412.64
2018-11-13T04:15:30.958Z,100417.55
2018-11-13T04:18:03.645Z,100419.87
2018-11-13T04:20:38.932Z,100415.20
2018-11-13T04:23:12.717Z,100403.79
2018-11-13T04:25:45.908Z,100385.35
2018-11-13T04:28:21.543Z,100388.77
2018-11-13T04:30:54.300Z,100395.59
2018-11-13T04:33:39.920Z,100401.95
2018-11-13T04:36:16.969Z,100391.19
2018-11-13T04:38:49.900Z,100401.50
2018-11-13T04:41:23.011Z,100407.00
2018-11-13T04:43:55.503Z,100415.75
2018-11-13T04:46:28.417Z,100414.20
2018-11-13T04:49:03.006Z,100425.95
2018-11-13T04:51:35.603Z,100430.17
2018-11-13T04:54:08.068Z,100435.66
2018-11-13T04:56:42.995Z,100439.09
2018-11-13T04:59:16.162Z,100438.67
2018-11-13T05:01:48.737Z,100434.73
2018-11-13T05:04:22.920Z,100429.69
2018-11-13T05:06:55.763Z,100424.59
2018-11-13T05:09:35.536Z,100425.75
2018-11-13T05:12:08.304Z,100418.05
2018-11-13T05:14:41.980Z,100417.50
2018-11-13T05:17:14.657Z,100441.77
2018-11-13T05:19:47.428Z,100450.74
2018-11-13T05:22:20.433Z,100449.52
2018-11-13T05:24:53.224Z,100447.41
2018-11-13T05:27:26.602Z,100448.51
2018-11-13T05:29:59.600Z,100439.97
2018-11-13T05:32:36.768Z,100447.69
2018-11-13T05:35:16.042Z,100472.11
2018-11-13T05:37:48.923Z,100474.28
2018-11-13T05:40:23.914Z,100466.23
2018-11-13T05:42:57.576Z,100459.84
2018-11-13T05:45:31.032Z,100462.01
2018-11-13T05:48:04.779Z,100462.14
2018-11-13T05:50:37.231Z,100467.47
2018-11-13T05:53:10.243Z,100468.05
2018-11-13T05:55:43.954Z,100481.96
2018-11-13T05:58:17.411Z,100481.38
2018-11-13T06:00:50.183Z,100487.03
2018-11-13T06:03:23.241Z,100489.98
2018-11-13T06:05:56.321Z,100497.58
2018-11-13T06:08:30.397Z,100500.91
2018-11-13T06:11:03.368Z,100511.66
2018-11-13T06:13:36.197Z,100503.85
2018-11-13T06:16:09.627Z,100504.13
2018-11-13T06:18:44.538Z,100499.13
2018-11-13T06:21:17.162Z,100496.81
2018-11-13T06:23:50.445Z,100503.86
2018-11-13T06:26:25.877Z,100509.71
2018-11-13T06:29:00.810Z,100520.11
2018-11-13T06:31:33.954Z,100519.84
2018-11-13T06:34:06.695Z,100518.17
2018-11-13T06:36:40.740Z,100523.45
2018-11-13T06:39:14.172Z,100517.44
2018-11-13T06:41:47.271Z,100522.23
2018-11-13T06:44:21.986Z,100522.64
2018-11-13T06:46:55.000Z,100525.47
2018-11-13T06:49:33.193Z,100536.86
2018-11-13T06:52:06.229Z,100549.06
2018-11-13T06:55:31.864Z,100554.94
2018-11-13T06:58:05.841Z,100566.53
2018-11-13T07:00:38.976Z,100573.77
2018-11-13T07:03:11.788Z,100570.22
2018-11-13T07:05:48.281Z,100573.89
2018-11-13T07:08:22.240Z,100584.64
2018-11-13T07:10:55.235Z,100583.75
2018-11-13T07:13:27.678Z,100582.29
2018-11-13T07:16:05.135Z,100588.50
2018-11-13T07:18:38.197Z,100599.07
2018-11-13T07:21:10.777Z,100605.49
2018-11-13T07:23:45.074Z,100599.16
2018-11-13T07:26:24.204Z,100606.45
2018-11-13T07:28:57.798Z,100610.22
2018-11-13T07:31:31.480Z,100616.02
2018-11-13T07:34:06.547Z,100618.11
2018-11-13T07:36:40.848Z,100623.81
2018-11-13T07:39:13.967Z,100626.45
2018-11-13T07:41:51.419Z,100641.23
2018-11-13T07:44:24.344Z,100640.13
2018-11-13T07:46:58.207Z,100643.33
2018-11-13T07:49:35.515Z,100644.66
2018-11-13T07:52:11.464Z,100637.08
2018-11-13T07:54:45.452Z,100638.30
2018-11-13T07:57:21.734Z,100627.98
2018-11-13T07:59:56.067Z,100638.91
2018-11-13T08:02:28.755Z,100646.34
2018-11-13T08:05:35.945Z,100653.55
2018-11-13T08:08:09.683Z,100645.73
2018-11-13T08:10:43.857Z,100653.11
2018-11-13T08:13:19.462Z,100661.38
2018-11-13T08:15:56.775Z,100658.27
2018-11-13T08:18:32.164Z,100665.86
2018-11-13T08:21:07.856Z,100660.70
2018-11-13T08:23:43.331Z,100662.02
2018-11-13T08:26:16.049Z,100660.30
2018-11-13T08:28:52.432Z,100660.25
2018-11-13T08:31:26.352Z,100659.52
2018-11-13T08:33:59.775Z,100656.48
2018-11-13T08:36:33.980Z,100658.59
2018-11-13T08:39:13.076Z,100657.93
2018-11-13T08:41:50.455Z,100662.48
2018-11-13T08:44:35.237Z,100661.29
2018-11-13T08:47:09.775Z,100658.57
2018-11-13T08:49:45.959Z,100665.21
2018-11-13T08:52:22.196Z,100668.99
2018-11-13T08:54:56.374Z,100673.04
2018-11-13T08:57:31.937Z,100677.84
2018-11-13T09:00:30.004Z,100684.66
2018-11-13T09:03:03.727Z,100682.03
2018-11-13T09:05:40.107Z,100694.55
2018-11-13T09:08:22.830Z,100679.20
2018-11-13T09:10:58.534Z,100687.70
2018-11-13T09:13:35.697Z,100690.36
2018-11-13T09:16:14.563Z,100690.48
2018-11-13T09:18:51.389Z,100697.25
2018-11-13T09:21:30.407Z,100699.34
2018-11-13T09:24:04.394Z,100699.22
2018-11-13T09:26:40.344Z,100709.11
2018-11-13T09:29:21.277Z,100704.84
2018-11-13T09:31:56.402Z,100707.87
2018-11-13T09:34:31.190Z,100706.94
2018-11-13T09:37:04.485Z,100714.75
2018-11-13T09:39:41.204Z,100711.02
2018-11-13T09:42:16.067Z,100705.17
2018-11-13T09:44:51.322Z,100712.32
2018-11-13T09:47:26.368Z,100705.52
2018-11-13T09:50:10.009Z,100709.08
2018-11-13T09:52:46.876Z,100705.25
2018-11-13T09:55:22.674Z,100707.63
2018-11-13T09:57:56.453Z,100709.52
2018-11-13T10:00:30.787Z,100706.26
2018-11-13T10:03:06.346Z,100714.06
2018-11-13T10:05:40.321Z,100727.45
2018-11-13T10:08:15.783Z,100715.79
2018-11-13T10:10:51.231Z,100719.30
2018-11-13T10:13:27.460Z,100724.63
2018-11-13T10:16:02.204Z,100734.42
2018-11-13T10:18:35.360Z,100727.50
2018-11-13T10:21:09.873Z,100739.39
2018-11-13T10:23:44.072Z,100740.27
2018-11-13T10:26:18.472Z,100738.96
2018-11-13T10:28:52.576Z,100738.63
2018-11-13T10:31:26.117Z,100744.11
2018-11-13T10:34:05.028Z,100729.03
2018-11-13T10:36:40.215Z,100734.48
2018-11-13T10:39:13.927Z,100751.07
2018-11-13T10:41:46.868Z,100752.13
2018-11-13T10:44:20.610Z,100741.69
2018-11-13T10:47:08.562Z,100737.23
2018-11-13T10:49:43.032Z,100745.41
2018-11-13T10:52:18.643Z,100740.89
2018-11-13T10:54:56.376Z,100740.88
2018-11-13T10:57:30.104Z,100752.25
2018-11-13T11:00:23.043Z,100747.73
2018-11-13T11:03:11.092Z,100760.05
2018-11-13T11:05:44.755Z,100748.64
2018-11-13T11:08:18.435Z,100738.78
2018-11-13T11:10:52.056Z,100749.64
2018-11-13T11:13:27.591Z,100734.91
2018-11-13T11:16:02.068Z,100739.27
2018-11-13T11:18:36.216Z,100748.94
2018-11-13T11:21:10.352Z,100744.22
2018-11-13T11:23:43.718Z,100742.00
2018-11-13T11:26:21.286Z,100743.26
2018-11-13T11:28:54.074Z,100752.45
2018-11-13T11:31:35.764Z,100750.50
2018-11-13T11:34:09.876Z,100752.75
2018-11-13T11:36:44.764Z,100763.75
2018-11-13T11:39:21.764Z,100742.80
2018-11-13T11:41:55.734Z,100759.39
2018-11-13T11:44:29.334Z,100775.33
2018-11-13T11:47:03.376Z,100768.80
2018-11-13T11:49:38.280Z,100775.59
2018-11-13T11:52:13.030Z,100780.44
2018-11-13T11:54:47.616Z,100780.94
2018-11-13T11:57:21.999Z,100782.90
2018-11-13T11:59:55.761Z,100776.73
2018-11-13T12:02:34.783Z,100778.02
2018-11-13T12:05:10.043Z,100781.50
2018-11-13T12:07:45.186Z,100785.56
2018-11-13T12:10:19.360Z,100787.86
2018-11-13T12:12:53.943Z,100792.87
2018-11-13T12:15:28.292Z,100786.63
2018-11-13T12:18:14.571Z,100798.30
2018-11-13T12:20:50.191Z,100795.12
2018-11-13T12:23:27.305Z,100797.76
2018-11-13T12:26:01.754Z,100805.22
2018-11-13T12:28:40.234Z,100806.56
2018-11-13T12:31:15.837Z,100806.61
2018-11-13T12:33:50.772Z,100816.06
2018-11-13T12:36:26.252Z,100805.88
2018-11-13T12:38:59.621Z,100815.75
2018-11-13T12:41:34.156Z,100817.52
2018-11-13T12:44:07.064Z,100816.01
2018-11-13T12:46:41.840Z,100811.20
2018-11-13T12:49:16.078Z,100826.52
2018-11-13T12:51:57.288Z,100821.23
2018-11-13T12:54:29.995Z,100831.06
2018-11-13T12:57:08.648Z,100823.74
2018-11-13T12:59:50.011Z,100824.27
2018-11-13T13:02:23.302Z,100823.22
2018-11-13T13:04:56.847Z,100853.25
2018-11-13T13:07:32.441Z,100837.86
2018-11-13T13:10:13.603Z,100845.28
2018-11-13T13:12:49.346Z,100839.75
2018-11-13T13:15:23.197Z,100840.13
2018-11-13T13:17:58.540Z,100847.52
2018-11-13T13:20:42.623Z,100861.36
2018-11-13T13:23:20.496Z,100850.63
2018-11-13T13:25:56.621Z,100848.68
2018-11-13T13:28:45.444Z,100847.16
2018-11-13T13:31:21.525Z,100862.44
2018-11-13T13:34:01.520Z,100857.48
2018-11-13T13:36:41.789Z,100863.03
2018-11-13T13:39:21.742Z,100861.67
2018-11-13T13:41:58.267Z,100867.64
2018-11-13T13:44:32.756Z,100885.83
2018-11-13T13:47:19.179Z,100884.76
2018-11-13T13:49:55.134Z,100888.55
2018-11-13T13:52:29.182Z,100893.25
2018-11-13T13:55:12.971Z,100895.50
2018-11-13T13:57:54.180Z,100893.22
2018-11-13T14:00:29.583Z,100899.01
2018-11-13T14:03:05.466Z,100902.95
2018-11-13T14:05:38.963Z,100896.78
2018-11-13T14:08:15.486Z,100901.97
2018-11-13T14:11:05.495Z,100903.64
2018-11-13T14:13:40.883Z,100909.13
2018-11-13T14:16:18.710Z,100912.80
2018-11-13T14:19:00.503Z,100919.92
2018-11-13T14:21:37.641Z,100918.29
2018-11-13T14:24:37.680Z,100924.92
2018-11-13T14:27:16.379Z,100933.56
2018-11-13T14:29:51.035Z,100923.44
2018-11-13T14:32:25.487Z,100944.91
2018-11-13T14:35:12.785Z,100939.30
2018-11-13T14:37:57.188Z,100940.66
2018-11-13T14:40:38.440Z,100944.76
2018-11-13T14:43:14.127Z,100949.95
2018-11-13T14:46:03.334Z,100955.78
2018-11-13T14:48:48.108Z,100966.02
2018-11-13T14:51:27.920Z,100952.88
2018-11-13T14:54:07.857Z,100981.98
2018-11-13T14:56:45.236Z,100978.70
2018-11-13T14:59:20.511Z,100990.02
2018-11-13T15:02:01.605Z,100980.27
2018-11-13T15:04:41.076Z,100991.03
2018-11-13T15:07:14.050Z,100990.72
2018-11-13T15:09:48.400Z,100994.97
2018-11-13T15:12:25.542Z,100996.70
2018-11-13T15:15:05.235Z,101001.94
2018-11-13T15:17:43.643Z,101009.52
2018-11-13T15:20:24.074Z,101013.15
2018-11-13T15:23:03.845Z,101017.55
2018-11-13T15:25:49.431Z,101016.00
2018-11-13T15:28:24.323Z,101023.34
2018-11-13T15:31:00.687Z,101024.34
2018-11-13T15:33:35.853Z,101033.27
2018-11-13T15:36:12.315Z,101035.77
2018-11-13T15:38:48.095Z,101038.30
2018-11-13T15:41:22.157Z,101045.72
2018-11-13T15:43:57.238Z,101041.28
2018-11-13T15:46:34.248Z,101046.84
2018-11-13T15:49:14.734Z,101050.58
2018-11-13T15:51:54.174Z,101051.33
2018-11-13T15:54:31.727Z,101059.88
2018-11-13T15:57:12.704Z,101068.08
2018-11-13T15:59:48.968Z,101074.24
2018-11-13T16:02:27.663Z,101078.66
2018-11-13T16:05:08.181Z,101075.20
2018-11-13T16:07:43.399Z,101081.31
2018-11-13T16:10:20.686Z,101091.11
2018-11-13T16:12:57.801Z,101095.30
2018-11-13T16:15:31.503Z,101101.03
2018-11-13T16:18:11.884Z,101102.69
2018-11-13T16:20:59.396Z,101102.42
2018-11-13T16:23:38.947Z,101107.73
2018-11-13T16:26:17.516Z,101107.56
2018-11-13T16:28:53.055Z,101115.83
2018-11-13T16:31:34.786Z,101120.86
2018-11-13T16:34:11.037Z,101123.45
2018-11-13T16:36:50.810Z,101124.09
2018-11-13T16:39:29.862Z,101125.33
2018-11-13T16:42:07.912Z,101131.13
2018-11-13T16:44:42.761Z,101137.45
2018-11-13T16:47:19.576Z,101138.20
2018-11-13T16:50:07.979Z,101139.27
2018-11-13T16:52:53.998Z,101142.08
2018-11-13T16:55:39.497Z,101141.38
2018-11-13T16:58:17.806Z,101145.97
2018-11-13T17:01:08.694Z,101141.89
2018-11-13T17:03:48.610Z,101151.28
2018-11-13T17:06:43.648Z,101151.48
2018-11-13T17:09:23.163Z,101149.95
2018-11-13T17:12:11.769Z,101157.50
2018-11-13T17:14:49.073Z,101158.36
2018-11-13T17:17:24.985Z,101159.46
2018-11-13T17:20:07.940Z,101159.49
2018-11-13T17:22:43.403Z,101160.83
2018-11-13T17:25:37.724Z,101166.13
2018-11-13T17:28:23.368Z,101161.88
2018-11-13T17:31:01.949Z,101162.92
2018-11-13T17:33:37.438Z,101167.95
2018-11-13T17:36:23.645Z,101166.69
2018-11-13T17:38:59.729Z,101170.17
2018-11-13T17:41:34.704Z,101168.58
2018-11-13T17:44:20.714Z,101175.39
2018-11-13T17:46:59.092Z,101178.12
2018-11-13T17:49:45.066Z,101179.92
2018-11-13T17:52:26.751Z,101182.95
2018-11-13T17:55:08.184Z,101180.45
2018-11-13T18:00:34.535Z,101188.76
2018-11-13T18:03:15.907Z,101183.14
2018-11-13T18:05:52.611Z,101186.36
2018-11-13T18:08:32.848Z,101190.52
2018-11-13T18:11:11.762Z,101186.58
2018-11-13T18:13:50.130Z,101189.98
2018-11-13T18:16:28.712Z,101193.05
2018-11-13T18:19:06.627Z,101191.88
2018-11-13T18:21:41.370Z,101197.78
2018-11-13T18:24:23.507Z,101199.52
2018-11-13T18:27:01.708Z,101198.41
2018-11-13T18:29:42.059Z,101202.51
2018-11-13T18:32:20.457Z,101210.81
2018-11-13T18:34:56.768Z,101205.95
2018-11-13T18:37:37.936Z,101208.42
2018-11-13T18:40:27.813Z,101211.12
2018-11-13T18:43:15.792Z,101209.25
2018-11-13T18:45:59.355Z,101210.06
2018-11-13T18:48:39.973Z,101212.93
2018-11-13T18:51:21.591Z,101219.15
2018-11-13T18:54:01.252Z,101221.15
2018-11-13T18:56:39.183Z,101222.67
2018-11-13T18:59:25.758Z,101225.30
2018-11-13T19:02:04.018Z,101222.94
2018-11-13T19:04:44.066Z,101229.13
2018-11-13T19:07:20.325Z,101228.11
2018-11-13T19:09:56.896Z,101230.34
2018-11-13T19:12:39.372Z,101235.66
2018-11-13T19:15:33.379Z,101237.33
2018-11-13T19:18:15.214Z,101239.51
2018-11-13T19:20:49.664Z,101238.53
2018-11-13T19:23:27.888Z,101239.88
2018-11-13T19:26:07.366Z,101245.03
2018-11-13T19:28:45.142Z,101237.44
2018-11-13T19:31:27.613Z,101237.91
2018-11-13T19:34:08.123Z,101243.03
2018-11-13T19:36:50.329Z,101247.31
2018-11-13T19:39:43.361Z,101252.39
2018-11-13T19:42:29.983Z,101256.61
2018-11-13T19:45:12.271Z,101261.07
2018-11-13T19:47:55.367Z,101260.81
2018-11-13T19:50:33.874Z,101267.59
2018-11-13T19:53:11.663Z,101267.88
2018-11-13T19:55:47.520Z,101272.11
2018-11-13T19:58:30.246Z,101268.76
2018-11-13T20:01:06.707Z,101268.66
2018-11-13T20:03:46.720Z,101267.25
2018-11-13T20:06:24.762Z,101265.64
2018-11-13T20:09:06.735Z,101271.53
2018-11-13T20:11:49.815Z,101272.06
2018-11-13T20:14:29.398Z,101280.30
2018-11-13T20:17:13.305Z,101281.74
2018-11-13T20:19:52.485Z,101284.39
2018-11-13T20:22:31.725Z,101289.73
2018-11-13T20:25:18.008Z,101297.25
2018-11-13T20:27:53.510Z,101296.79
2018-11-13T20:30:53.584Z,101298.17
2018-11-13T20:33:29.807Z,101298.23
2018-11-13T20:36:06.379Z,101294.77
2018-11-13T20:38:48.417Z,101300.14
2018-11-13T20:41:25.865Z,101301.63
2018-11-13T20:44:01.584Z,101302.05
2018-11-13T20:46:36.252Z,101306.66
2018-11-13T20:49:17.916Z,101306.59
2018-11-13T20:51:52.021Z,101309.58
2018-11-13T20:54:27.753Z,101311.52
2018-11-13T20:57:04.764Z,101317.09
2018-11-13T20:59:44.598Z,101317.47
2018-11-13T21:02:25.103Z,101313.19
2018-11-13T21:05:06.650Z,101315.45
2018-11-13T21:07:47.339Z,101309.59
2018-11-13T21:10:31.502Z,101313.02
2018-11-13T21:13:09.082Z,101310.70
2018-11-13T21:15:45.862Z,101309.45
2018-11-13T21:18:24.535Z,101312.88
2018-11-13T21:20:59.675Z,101310.95
2018-11-13T21:23:40.492Z,101313.91
2018-11-13T21:26:20.682Z,101317.16
2018-11-13T21:29:00.747Z,101323.70
2018-11-13T21:31:39.193Z,101322.22
2018-11-13T21:34:17.704Z,101328.80
2018-11-13T21:36:51.934Z,101327.42
2018-11-13T21:39:32.559Z,101327.86
2018-11-13T21:42:08.951Z,101331.60
2018-11-13T21:44:43.007Z,101334.23
2018-11-13T21:47:16.880Z,101330.64
2018-11-13T21:49:52.229Z,101331.36
2018-11-13T21:52:27.697Z,101332.39
2018-11-13T21:55:06.611Z,101331.21
2018-11-13T21:57:45.153Z,101332.37
2018-11-13T22:00:23.559Z,101330.34
2018-11-13T22:03:07.030Z,101335.77
2018-11-13T22:05:49.185Z,101336.70
2018-11-13T22:08:22.612Z,101333.23
2018-11-13T22:10:57.535Z,101332.06
2018-11-13T22:13:36.347Z,101332.44
2018-11-13T22:16:08.981Z,101335.77
2018-11-13T22:18:44.530Z,101341.64
2018-11-13T22:21:20.569Z,101343.06
2018-11-13T22:23:58.799Z,101342.30
2018-11-13T22:26:34.513Z,101345.13
2018-11-13T22:29:09.590Z,101344.06
2018-11-13T22:31:46.244Z,101351.61
2018-11-13T22:34:20.982Z,101352.13
2018-11-13T22:37:11.834Z,101353.80
2018-11-13T22:39:56.091Z,101348.89
2018-11-13T22:42:30.043Z,101349.72
2018-11-13T22:45:20.358Z,101345.68
2018-11-13T22:47:55.035Z,101352.98
2018-11-13T22:50:31.285Z,101351.95
2018-11-13T22:53:07.170Z,101361.00
2018-11-13T22:55:40.449Z,101362.05
2018-11-13T22:58:15.851Z,101365.03
2018-11-13T23:00:50.285Z,101358.94
2018-11-13T23:03:23.371Z,101360.71
2018-11-13T23:05:55.981Z,101359.83
2018-11-13T23:08:30.906Z,101358.91
2018-11-13T23:11:09.344Z,101361.53
2018-11-13T23:13:42.051Z,101358.39
2018-11-13T23:16:17.201Z,101358.28
2018-11-13T23:18:50.751Z,101365.77
2018-11-13T23:21:24.222Z,101370.05
2018-11-13T23:23:58.203Z,101365.92
2018-11-13T23:26:30.774Z,101370.96
2018-11-13T23:29:04.286Z,101378.45
2018-11-13T23:31:40.758Z,101384.88
2018-11-13T23:34:13.399Z,101385.31
2018-11-13T23:36:47.428Z,101386.24
2018-11-13T23:39:21.817Z,101382.46
2018-11-13T23:42:00.844Z,101381.23
2018-11-13T23:44:35.809Z,101380.64
2018-11-13T23:47:14.384Z,101377.98
2018-11-13T23:49:47.878Z,101379.42
2018-11-13T23:52:21.044Z,101383.70
2018-11-13T23:54:56.234Z,101384.56
2018-11-13T23:57:28.928Z,101382.91
